createdAt,value
2023-07-18T00:00:45.020Z,101315.53
2023-07-18T00:03:13.885Z,101309.81
2023-07-18T00:05:41.862Z,101308.88
2023-07-18T00:08:10.180Z,101310.97
2023-07-18T00:10:37.821Z,101314.19
2023-07-18T00:13:06.397Z,101306.38
2023-07-18T00:15:33.861Z,101304.72
2023-07-18T00:18:03.273Z,101303.47
2023-07-18T00:20:30.368Z,101308.97
2023-07-18T00:22:57.421Z,101304.03
2023-07-18T00:25:24.525Z,101303.41
2023-07-18T00:27:52.318Z,101303.34
2023-07-18T00:30:19.240Z,101298.13
2023-07-18T00:32:46.726Z,101292.81
2023-07-18T00:35:16.140Z,101298.75
2023-07-18T00:37:44.279Z,101298.56
2023-07-18T00:40:15.873Z,101306.78
2023-07-18T00:42:51.453Z,101306.72
2023-07-18T00:45:18.415Z,101300.13
2023-07-18T00:47:48.533Z,101295.91
2023-07-18T00:50:17.206Z,101298.25
2023-07-18T00:52:47.862Z,101297.94
2023-07-18T00:55:15.371Z,101288.19
2023-07-18T00:57:43.859Z,101282.06
2023-07-18T01:00:14.601Z,101290.47
2023-07-18T01:02:45.705Z,101278.09
2023-07-18T01:05:19.039Z,101281.81
2023-07-18T01:07:47.638Z,101280.50
2023-07-18T01:10:18.373Z,101284.31
2023-07-18T01:12:46.077Z,101280.28
2023-07-18T01:15:13.984Z,101284.56
2023-07-18T01:17:43.463Z,101272.31
2023-07-18T01:20:13.222Z,101278.72
2023-07-18T01:22:40.342Z,101281.53
2023-07-18T01:25:07.731Z,101279.75
2023-07-18T01:27:38.038Z,101272.88
2023-07-18T01:30:06.785Z,101267.47
2023-07-18T01:32:35.334Z,101269.78
2023-07-18T01:35:05.131Z,101265.22
2023-07-18T01:37:33.463Z,101258.69
2023-07-18T01:40:01.337Z,101249.03
2023-07-18T01:42:28.651Z,101250.59
2023-07-18T01:44:55.700Z,101257.41
2023-07-18T01:47:22.806Z,101260.66
2023-07-18T01:49:49.626Z,101245.13
2023-07-18T01:52:16.328Z,101250.47
2023-07-18T01:54:43.080Z,101253.16
2023-07-18T01:57:10.375Z,101248.28
2023-07-18T01:59:37.061Z,101252.69
2023-07-18T02:02:07.413Z,101254.63
2023-07-18T02:04:34.945Z,101243.78
2023-07-18T02:07:01.627Z,101258.66
2023-07-18T02:09:29.251Z,101254.31
2023-07-18T02:11:55.944Z,101254.63
2023-07-18T02:14:22.546Z,101246.97
2023-07-18T02:16:49.435Z,101241.22
2023-07-18T02:19:16.415Z,101236.38
2023-07-18T02:21:43.228Z,101236.78
2023-07-18T02:24:10.156Z,101236.28
2023-07-18T02:26:37.141Z,101237.84
2023-07-18T02:29:04.071Z,101245.06
2023-07-18T02:31:31.640Z,101244.16
2023-07-18T02:33:58.888Z,101249.38
2023-07-18T02:36:26.118Z,101243.44
2023-07-18T02:38:53.300Z,101239.22
2023-07-18T02:41:21.021Z,101239.59
2023-07-18T02:43:48.355Z,101243.03
2023-07-18T02:46:15.345Z,101235.75
2023-07-18T02:48:42.990Z,101236.13
2023-07-18T02:51:09.587Z,101246.03
2023-07-18T02:53:37.051Z,101248.53
2023-07-18T02:56:03.864Z,101245.47
2023-07-18T02:58:30.381Z,101238.25
2023-07-18T03:00:57.347Z,101244.59
2023-07-18T03:03:24.497Z,101246.91
2023-07-18T03:05:54.489Z,101247.66
2023-07-18T03:08:21.970Z,101246.78
2023-07-18T03:10:48.588Z,101239.56
2023-07-18T03:13:15.303Z,101249.94
2023-07-18T03:15:42.510Z,101245.88
2023-07-18T03:18:09.240Z,101241.00
2023-07-18T03:20:36.288Z,101231.00
2023-07-18T03:23:03.142Z,101232.34
2023-07-18T03:25:29.782Z,101242.97
2023-07-18T03:27:56.799Z,101238.41
2023-07-18T03:30:24.768Z,101233.34
2023-07-18T03:32:52.552Z,101231.78
2023-07-18T03:35:19.273Z,101234.72
2023-07-18T03:37:46.178Z,101230.94
2023-07-18T03:40:16.867Z,101239.66
2023-07-18T03:42:44.606Z,101241.91
2023-07-18T03:45:14.158Z,101248.69
2023-07-18T03:47:42.209Z,101247.59
2023-07-18T03:50:11.911Z,101243.38
2023-07-18T03:52:39.583Z,101244.56
2023-07-18T03:55:07.901Z,101241.75
2023-07-18T03:57:35.825Z,101230.81
2023-07-18T04:00:08.904Z,101230.25
2023-07-18T04:02:37.057Z,101234.69
2023-07-18T04:05:03.790Z,101230.31
2023-07-18T04:07:33.027Z,101236.56
2023-07-18T04:09:59.711Z,101226.13
2023-07-18T04:12:26.301Z,101223.09
2023-07-18T04:14:52.888Z,101223.41
2023-07-18T04:17:19.433Z,101222.88
2023-07-18T04:19:46.458Z,101221.34
2023-07-18T04:22:13.050Z,101225.66
2023-07-18T04:24:40.513Z,101226.84
2023-07-18T04:27:07.339Z,101222.16
2023-07-18T04:29:34.322Z,101226.19
2023-07-18T04:32:01.247Z,101222.28
2023-07-18T04:34:27.987Z,101224.72
2023-07-18T04:36:54.605Z,101231.13
2023-07-18T04:39:21.911Z,101228.69
2023-07-18T04:41:55.022Z,101227.97
2023-07-18T04:44:25.811Z,101226.34
2023-07-18T04:46:55.725Z,101235.25
2023-07-18T04:49:26.242Z,101224.09
2023-07-18T04:51:53.979Z,101229.75
2023-07-18T04:54:21.324Z,101224.16
2023-07-18T04:56:49.011Z,101224.28
2023-07-18T04:59:15.902Z,101223.56
2023-07-18T05:01:42.592Z,101217.22
2023-07-18T05:04:09.806Z,101209.41
2023-07-18T05:06:36.970Z,101209.56
2023-07-18T05:09:04.615Z,101202.75
2023-07-18T05:11:33.835Z,101205.66
2023-07-18T05:14:01.560Z,101202.81
2023-07-18T05:16:28.775Z,101209.00
2023-07-18T05:18:55.356Z,101207.53
2023-07-18T05:21:22.810Z,101202.00
2023-07-18T05:23:49.397Z,101210.91
2023-07-18T05:26:15.803Z,101206.53
2023-07-18T05:28:42.336Z,101211.66
2023-07-18T05:31:09.522Z,101204.13
2023-07-18T05:33:36.305Z,101200.34
2023-07-18T05:36:03.030Z,101209.84
2023-07-18T05:38:29.669Z,101209.78
2023-07-18T05:40:57.275Z,101208.91
2023-07-18T05:43:24.166Z,101200.34
2023-07-18T05:45:50.786Z,101206.19
2023-07-18T05:48:17.854Z,101209.22
2023-07-18T05:50:44.741Z,101198.78
2023-07-18T05:53:11.812Z,101209.19
2023-07-18T05:55:39.486Z,101200.09
2023-07-18T05:58:06.221Z,101198.78
2023-07-18T06:00:33.017Z,101196.66
2023-07-18T06:02:59.590Z,101187.38
2023-07-18T06:05:26.561Z,101191.53
2023-07-18T06:07:53.691Z,101188.09
2023-07-18T06:10:20.306Z,101190.84
2023-07-18T06:12:46.965Z,101192.16
2023-07-18T06:15:16.136Z,101191.78
2023-07-18T06:17:42.752Z,101181.41
2023-07-18T06:20:14.732Z,101188.72
2023-07-18T06:22:44.172Z,101183.09
2023-07-18T06:25:11.461Z,101180.28
2023-07-18T06:27:38.673Z,101172.63
2023-07-18T06:30:05.930Z,101171.06
2023-07-18T06:32:32.608Z,101169.47
2023-07-18T06:35:06.082Z,101165.84
2023-07-18T06:37:43.753Z,101165.38
2023-07-18T06:40:12.697Z,101165.69
2023-07-18T06:42:40.097Z,101168.47
2023-07-18T06:45:07.915Z,101165.56
2023-07-18T06:47:34.430Z,101157.75
2023-07-18T06:50:02.278Z,101155.59
2023-07-18T06:52:29.300Z,101144.16
2023-07-18T06:54:56.132Z,101144.72
2023-07-18T06:57:23.029Z,101145.75
2023-07-18T06:59:49.737Z,101151.56
2023-07-18T07:02:17.021Z,101151.47
2023-07-18T07:04:43.763Z,101145.88
2023-07-18T07:07:10.385Z,101148.91
2023-07-18T07:09:37.350Z,101135.75
2023-07-18T07:12:05.209Z,101136.59
2023-07-18T07:14:31.940Z,101131.00
2023-07-18T07:16:59.197Z,101131.66
2023-07-18T07:19:25.848Z,101129.72
2023-07-18T07:21:52.375Z,101131.41
2023-07-18T07:24:19.018Z,101129.44
2023-07-18T07:26:45.976Z,101131.25
2023-07-18T07:29:15.579Z,101130.66
2023-07-18T07:31:43.476Z,101131.41
2023-07-18T07:34:11.467Z,101135.69
2023-07-18T07:36:41.041Z,101130.19
2023-07-18T07:39:08.619Z,101129.69
2023-07-18T07:41:35.931Z,101128.56
2023-07-18T07:44:02.649Z,101121.88
2023-07-18T07:46:29.162Z,101127.31
2023-07-18T07:48:55.901Z,101116.16
2023-07-18T07:51:23.334Z,101113.59
2023-07-18T07:53:50.008Z,101109.19
2023-07-18T07:56:17.230Z,101103.38
2023-07-18T07:58:49.316Z,101095.84
2023-07-18T08:01:24.212Z,101091.59
2023-07-18T08:03:51.025Z,101097.09
2023-07-18T08:06:18.487Z,101093.72
2023-07-18T08:08:45.746Z,101087.91
2023-07-18T08:11:12.503Z,101097.19
2023-07-18T08:13:39.173Z,101105.31
2023-07-18T08:16:06.705Z,101091.50
2023-07-18T08:18:35.384Z,101085.13
2023-07-18T08:21:02.927Z,101092.78
2023-07-18T08:23:30.233Z,101096.03
2023-07-18T08:25:56.877Z,101093.31
2023-07-18T08:28:23.967Z,101097.06
2023-07-18T08:30:50.906Z,101087.38
2023-07-18T08:33:20.301Z,101084.91
2023-07-18T08:35:47.232Z,101093.25
2023-07-18T08:38:14.831Z,101091.13
2023-07-18T08:40:45.028Z,101088.72
2023-07-18T08:43:15.827Z,101083.44
2023-07-18T08:45:43.925Z,101079.47
2023-07-18T08:48:10.566Z,101074.38
2023-07-18T08:50:40.634Z,101065.84
2023-07-18T08:53:07.670Z,101070.75
2023-07-18T08:55:36.051Z,101050.13
2023-07-18T08:58:03.660Z,101043.09
2023-07-18T09:00:30.504Z,101039.16
2023-07-18T09:02:57.486Z,101044.06
2023-07-18T09:05:33.106Z,101040.88
2023-07-18T09:08:01.269Z,101046.53
2023-07-18T09:10:28.212Z,101032.59
2023-07-18T09:12:59.855Z,101029.75
2023-07-18T09:15:26.524Z,101014.34
2023-07-18T09:17:58.188Z,101010.09
2023-07-18T09:20:26.848Z,101018.41
2023-07-18T09:23:01.463Z,101010.97
2023-07-18T09:25:28.939Z,101002.25
2023-07-18T09:27:56.837Z,101006.22
2023-07-18T09:30:28.996Z,100998.03
2023-07-18T09:32:56.641Z,100989.72
2023-07-18T09:35:27.546Z,100992.38
2023-07-18T09:37:56.398Z,100989.91
2023-07-18T09:40:23.506Z,100984.75
2023-07-18T09:42:50.998Z,100975.34
2023-07-18T09:45:18.134Z,100985.03
2023-07-18T09:47:45.583Z,100987.34
2023-07-18T09:50:14.443Z,100992.47
2023-07-18T09:52:43.059Z,100994.25
2023-07-18T09:55:11.211Z,101010.38
2023-07-18T09:57:41.374Z,101012.59
2023-07-18T10:00:16.513Z,101008.13
2023-07-18T10:02:44.360Z,101017.47
2023-07-18T10:05:11.398Z,101013.22
2023-07-18T10:07:39.822Z,101012.38
2023-07-18T10:10:09.866Z,101020.84
2023-07-18T10:12:38.786Z,101033.53
2023-07-18T10:15:06.095Z,101025.16
2023-07-18T10:17:40.171Z,101019.59
2023-07-18T10:20:18.834Z,101010.22
2023-07-18T10:22:58.596Z,101001.69
2023-07-18T10:25:30.748Z,100991.09
2023-07-18T10:27:59.307Z,100986.09
2023-07-18T10:30:38.198Z,100975.66
2023-07-18T10:33:09.552Z,100959.66
2023-07-18T10:35:42.503Z,100956.34
2023-07-18T10:38:10.303Z,100962.41
2023-07-18T10:40:43.945Z,100943.16
2023-07-18T10:43:12.945Z,100958.78
2023-07-18T10:45:41.512Z,100953.19
2023-07-18T10:48:15.696Z,100942.34
2023-07-18T10:50:44.581Z,100942.53
2023-07-18T10:53:18.683Z,100944.13
2023-07-18T10:55:46.942Z,100939.81
2023-07-18T10:58:21.204Z,100930.81
2023-07-18T11:00:50.425Z,100927.66
2023-07-18T11:03:22.229Z,100926.38
2023-07-18T11:05:50.451Z,100923.88
2023-07-18T11:08:27.613Z,100918.44
2023-07-18T11:11:00.099Z,100904.31
2023-07-18T11:13:35.704Z,100907.38
2023-07-18T11:16:16.320Z,100927.97
2023-07-18T11:18:45.577Z,100912.72
2023-07-18T11:21:13.976Z,100905.19
2023-07-18T11:23:42.679Z,100909.50
2023-07-18T11:26:15.349Z,100897.16
2023-07-18T11:28:42.973Z,100899.41
2023-07-18T11:33:58.061Z,100873.53
2023-07-18T11:36:30.163Z,100858.94
2023-07-18T11:38:59.284Z,100858.09
2023-07-18T11:41:36.430Z,100857.25
2023-07-18T11:44:04.926Z,100859.25
2023-07-18T11:46:46.741Z,100845.75
2023-07-18T11:49:13.890Z,100847.81
2023-07-18T11:51:41.893Z,100838.34
2023-07-18T11:54:08.867Z,100848.41
2023-07-18T11:56:36.482Z,100839.03
2023-07-18T11:59:04.404Z,100833.72
2023-07-18T12:01:38.076Z,100838.78
2023-07-18T12:04:12.566Z,100833.94
2023-07-18T12:06:40.114Z,100821.34
2023-07-18T12:09:06.517Z,100819.28
2023-07-18T12:11:33.473Z,100806.28
2023-07-18T12:14:01.172Z,100809.16
2023-07-18T12:16:27.871Z,100806.06
2023-07-18T12:18:54.603Z,100803.59
2023-07-18T12:21:21.546Z,100799.75
2023-07-18T12:23:48.899Z,100797.34
2023-07-18T12:26:15.752Z,100789.06
2023-07-18T12:28:42.183Z,100791.13
2023-07-18T12:31:09.092Z,100789.78
2023-07-18T12:33:36.034Z,100790.16
2023-07-18T12:36:02.914Z,100782.47
2023-07-18T12:38:30.122Z,100784.78
2023-07-18T12:40:58.005Z,100781.88
2023-07-18T12:43:25.422Z,100791.91
2023-07-18T12:45:52.191Z,100798.13
2023-07-18T12:48:19.833Z,100792.66
2023-07-18T12:50:46.468Z,100786.97
2023-07-18T12:53:13.265Z,100790.84
2023-07-18T12:55:39.860Z,100783.19
2023-07-18T12:58:06.361Z,100775.53
2023-07-18T13:00:33.312Z,100768.88
2023-07-18T13:03:00.266Z,100763.59
2023-07-18T13:05:27.104Z,100756.97
2023-07-18T13:07:54.577Z,100759.25
2023-07-18T13:10:21.549Z,100743.19
2023-07-18T13:12:48.723Z,100754.03
2023-07-18T13:15:15.612Z,100756.28
2023-07-18T13:17:42.540Z,100749.19
2023-07-18T13:20:09.512Z,100748.72
2023-07-18T13:22:36.536Z,100743.38
2023-07-18T13:25:05.090Z,100742.09
2023-07-18T13:27:31.840Z,100737.03
2023-07-18T13:29:58.446Z,100735.59
2023-07-18T13:32:25.082Z,100729.66
2023-07-18T13:34:51.605Z,100733.94
2023-07-18T13:37:18.174Z,100727.47
2023-07-18T13:39:45.054Z,100720.34
2023-07-18T13:42:11.570Z,100713.81
2023-07-18T13:44:39.058Z,100717.84
2023-07-18T13:47:06.068Z,100707.81
2023-07-18T13:52:02.340Z,100688.56
2023-07-18T13:54:29.037Z,100679.84
2023-07-18T13:56:55.853Z,100685.63
2023-07-18T13:59:23.464Z,100679.78
2023-07-18T14:01:50.207Z,100671.34
2023-07-18T14:04:17.450Z,100664.53
2023-07-18T14:06:44.998Z,100659.28
2023-07-18T14:09:11.713Z,100657.72
2023-07-18T14:11:38.607Z,100662.72
2023-07-18T14:14:05.161Z,100647.75
2023-07-18T14:16:32.439Z,100644.56
2023-07-18T14:18:59.771Z,100630.97
2023-07-18T14:21:26.865Z,100637.28
2023-07-18T14:23:53.953Z,100634.00
2023-07-18T14:26:21.263Z,100626.41
2023-07-18T14:28:48.243Z,100619.72
2023-07-18T14:31:15.729Z,100618.50
2023-07-18T14:33:55.335Z,100610.88
2023-07-18T14:36:30.753Z,100615.31
2023-07-18T14:38:58.507Z,100610.31
2023-07-18T14:41:25.849Z,100605.56
2023-07-18T14:43:54.580Z,100619.41
2023-07-18T14:46:40.963Z,100606.97
2023-07-18T14:49:28.362Z,100608.59
2023-07-18T14:51:57.396Z,100602.22
2023-07-18T14:54:25.869Z,100610.09
2023-07-18T14:56:52.840Z,100619.63
2023-07-18T14:59:22.687Z,100607.38
2023-07-18T15:01:49.612Z,100611.03
2023-07-18T15:04:16.691Z,100605.03
2023-07-18T15:06:43.644Z,100600.03
2023-07-18T15:09:10.883Z,100597.81
2023-07-18T15:11:39.082Z,100600.09
2023-07-18T15:14:07.607Z,100597.06
2023-07-18T15:16:36.293Z,100592.13
2023-07-18T15:19:07.598Z,100589.75
2023-07-18T15:21:35.246Z,100586.28
2023-07-18T15:24:02.359Z,100578.34
2023-07-18T15:26:29.112Z,100572.44
2023-07-18T15:28:55.867Z,100568.94
2023-07-18T15:31:23.141Z,100564.75
2023-07-18T15:33:50.661Z,100561.63
2023-07-18T15:36:18.966Z,100553.72
2023-07-18T15:38:46.547Z,100556.53
2023-07-18T15:41:17.095Z,100553.75
2023-07-18T15:43:44.427Z,100561.56
2023-07-18T15:46:11.490Z,100561.19
2023-07-18T15:48:45.056Z,100556.03
2023-07-18T15:51:32.198Z,100551.59
2023-07-18T15:54:18.647Z,100543.09
2023-07-18T15:57:07.223Z,100546.63
2023-07-18T15:59:53.593Z,100533.47
2023-07-18T16:02:22.692Z,100541.41
2023-07-18T16:04:50.513Z,100530.88
2023-07-18T16:07:17.192Z,100522.69
2023-07-18T16:09:54.338Z,100517.88
2023-07-18T16:12:21.053Z,100520.47
2023-07-18T16:14:49.593Z,100520.13
2023-07-18T16:17:16.687Z,100525.09
2023-07-18T16:19:45.619Z,100516.31
2023-07-18T16:22:13.688Z,100515.69
2023-07-18T16:24:42.503Z,100513.81
2023-07-18T16:27:09.395Z,100506.28
2023-07-18T16:29:36.651Z,100500.75
2023-07-18T16:32:03.973Z,100492.56
2023-07-18T16:34:31.245Z,100495.53
2023-07-18T16:36:57.941Z,100497.13
2023-07-18T16:39:25.050Z,100493.25
2023-07-18T16:41:51.805Z,100495.63
2023-07-18T16:44:20.874Z,100490.06
2023-07-18T16:46:49.351Z,100478.47
2023-07-18T16:49:16.092Z,100479.94
2023-07-18T16:51:42.890Z,100470.03
2023-07-18T16:54:09.786Z,100480.56
2023-07-18T16:56:37.446Z,100468.47
2023-07-18T16:59:04.039Z,100470.22
2023-07-18T17:01:32.501Z,100467.38
2023-07-18T17:04:00.755Z,100460.81
2023-07-18T17:06:27.344Z,100455.66
2023-07-18T17:08:54.393Z,100454.41
2023-07-18T17:11:21.412Z,100450.59
2023-07-18T17:13:49.172Z,100454.78
2023-07-18T17:16:17.878Z,100462.59
2023-07-18T17:18:45.147Z,100458.03
2023-07-18T17:21:12.918Z,100454.34
2023-07-18T17:23:39.639Z,100453.47
2023-07-18T17:26:09.450Z,100444.41
2023-07-18T17:28:37.436Z,100449.94
2023-07-18T17:31:05.238Z,100445.13
2023-07-18T17:33:32.505Z,100451.72
2023-07-18T17:35:59.121Z,100452.38
2023-07-18T17:38:25.974Z,100443.06
2023-07-18T17:40:53.817Z,100447.13
2023-07-18T17:43:20.491Z,100446.41
2023-07-18T17:45:47.319Z,100442.31
2023-07-18T17:48:14.425Z,100438.06
2023-07-18T17:50:41.118Z,100433.56
2023-07-18T17:53:07.705Z,100432.53
2023-07-18T17:55:34.527Z,100442.13
2023-07-18T17:58:07.016Z,100435.50
2023-07-18T18:00:35.394Z,100434.50
2023-07-18T18:03:03.605Z,100437.56
2023-07-18T18:05:48.137Z,100436.97
2023-07-18T18:08:16.946Z,100432.78
2023-07-18T18:10:46.341Z,100426.09
2023-07-18T18:13:13.927Z,100422.00
2023-07-18T18:15:48.663Z,100421.53
2023-07-18T18:18:19.163Z,100415.31
2023-07-18T18:20:46.386Z,100415.47
2023-07-18T18:23:23.484Z,100419.72
2023-07-18T18:25:55.546Z,100422.44
2023-07-18T18:28:24.673Z,100414.09
2023-07-18T18:30:52.621Z,100411.13
2023-07-18T18:33:20.729Z,100418.72
2023-07-18T18:35:47.404Z,100422.06
2023-07-18T18:38:14.380Z,100413.19
2023-07-18T18:40:41.080Z,100413.56
2023-07-18T18:43:08.543Z,100417.22
2023-07-18T18:45:35.574Z,100419.09
2023-07-18T18:48:02.286Z,100418.34
2023-07-18T18:50:29.584Z,100413.38
2023-07-18T18:52:56.511Z,100416.41
2023-07-18T18:55:28.130Z,100418.34
2023-07-18T18:57:56.289Z,100425.69
2023-07-18T19:00:23.312Z,100416.50
2023-07-18T19:02:50.596Z,100425.72
2023-07-18T19:05:18.075Z,100416.84
2023-07-18T19:07:45.070Z,100410.91
2023-07-18T19:10:11.746Z,100416.72
2023-07-18T19:12:39.284Z,100422.50
2023-07-18T19:15:06.410Z,100417.25
2023-07-18T19:17:34.047Z,100414.25
2023-07-18T19:20:01.375Z,100427.59
2023-07-18T19:22:28.642Z,100431.47
2023-07-18T19:24:55.317Z,100427.25
2023-07-18T19:27:23.394Z,100429.22
2023-07-18T19:29:50.768Z,100430.19
2023-07-18T19:32:17.600Z,100435.31
2023-07-18T19:34:44.595Z,100445.38
2023-07-18T19:37:11.825Z,100444.13
2023-07-18T19:39:39.321Z,100451.75
2023-07-18T19:42:06.771Z,100454.13
2023-07-18T19:44:35.144Z,100444.25
2023-07-18T19:47:02.007Z,100448.75
2023-07-18T19:49:29.345Z,100459.66
2023-07-18T19:51:57.650Z,100452.84
2023-07-18T19:54:28.258Z,100456.16
2023-07-18T19:56:55.392Z,100466.78
2023-07-18T19:59:22.092Z,100468.94
2023-07-18T20:01:48.927Z,100463.38
2023-07-18T20:04:15.989Z,100468.63
2023-07-18T20:06:42.725Z,100478.34
2023-07-18T20:09:09.422Z,100474.94
2023-07-18T20:11:36.055Z,100470.72
2023-07-18T20:14:03.055Z,100478.59
2023-07-18T20:16:31.098Z,100472.41
2023-07-18T20:19:02.411Z,100482.06
2023-07-18T20:21:30.325Z,100481.91
2023-07-18T20:23:58.193Z,100490.06
2023-07-18T20:26:25.937Z,100481.03
2023-07-18T20:28:52.983Z,100486.19
2023-07-18T20:31:20.733Z,100472.91
2023-07-18T20:33:48.259Z,100472.91
2023-07-18T20:36:15.197Z,100468.56
2023-07-18T20:38:44.084Z,100464.97
2023-07-18T20:41:10.880Z,100470.56
2023-07-18T20:43:38.049Z,100472.84
2023-07-18T20:46:05.927Z,100473.63
2023-07-18T20:48:35.624Z,100477.41
2023-07-18T20:51:02.682Z,100472.75
2023-07-18T20:53:30.321Z,100472.78
2023-07-18T20:55:57.516Z,100476.31
2023-07-18T20:58:24.560Z,100475.91
2023-07-18T21:00:52.030Z,100473.16
2023-07-18T21:03:19.222Z,100484.81
2023-07-18T21:05:48.864Z,100484.09
2023-07-18T21:08:17.437Z,100485.75
2023-07-18T21:10:44.103Z,100495.41
2023-07-18T21:13:11.157Z,100488.66
2023-07-18T21:15:37.921Z,100484.91
2023-07-18T21:18:06.542Z,100489.47
2023-07-18T21:20:34.902Z,100481.16
2023-07-18T21:23:02.840Z,100490.13
2023-07-18T21:25:29.911Z,100483.81
2023-07-18T21:27:57.921Z,100488.66
2023-07-18T21:30:25.065Z,100486.34
2023-07-18T21:32:52.642Z,100479.97
2023-07-18T21:35:20.179Z,100480.66
2023-07-18T21:37:47.026Z,100475.91
2023-07-18T21:40:13.668Z,100478.38
2023-07-18T21:42:42.149Z,100472.66
2023-07-18T21:45:09.419Z,100470.47
2023-07-18T21:47:36.561Z,100477.59
2023-07-18T21:50:03.907Z,100476.31
2023-07-18T21:52:30.856Z,100472.34
2023-07-18T21:54:57.349Z,100476.94
2023-07-18T21:57:24.044Z,100471.56
2023-07-18T21:59:50.641Z,100476.72
2023-07-18T22:02:21.846Z,100479.56
2023-07-18T22:04:48.734Z,100489.41
2023-07-18T22:07:15.351Z,100482.22
2023-07-18T22:09:41.759Z,100489.03
2023-07-18T22:12:08.434Z,100474.56
2023-07-18T22:14:34.993Z,100482.00
2023-07-18T22:17:01.709Z,100475.53
2023-07-18T22:19:30.371Z,100491.31
2023-07-18T22:21:58.194Z,100491.81
2023-07-18T22:24:24.920Z,100490.59
2023-07-18T22:26:51.844Z,100486.16
2023-07-18T22:29:18.354Z,100487.44
2023-07-18T22:31:44.819Z,100488.72
2023-07-18T22:34:11.787Z,100491.13
2023-07-18T22:36:38.578Z,100478.41
2023-07-18T22:39:05.426Z,100484.09
2023-07-18T22:41:32.008Z,100488.09
2023-07-18T22:43:58.671Z,100488.25
2023-07-18T22:46:25.444Z,100478.09
2023-07-18T22:48:52.259Z,100477.97
2023-07-18T22:51:19.454Z,100480.56
2023-07-18T22:53:46.890Z,100482.00
2023-07-18T22:56:14.742Z,100482.47
2023-07-18T22:58:42.229Z,100480.50
2023-07-18T23:01:08.814Z,100485.22
2023-07-18T23:03:35.584Z,100483.41
2023-07-18T23:06:03.226Z,100479.44
2023-07-18T23:08:30.356Z,100475.34
2023-07-18T23:10:57.094Z,100480.44
2023-07-18T23:13:24.410Z,100475.69
2023-07-18T23:15:51.363Z,100475.63
2023-07-18T23:18:18.504Z,100476.34
2023-07-18T23:20:46.790Z,100471.91
2023-07-18T23:23:15.121Z,100472.75
2023-07-18T23:25:41.777Z,100479.72
2023-07-18T23:28:08.661Z,100477.16
2023-07-18T23:30:35.338Z,100473.25
2023-07-18T23:33:02.201Z,100480.25
2023-07-18T23:35:29.371Z,100478.75
2023-07-18T23:37:57.050Z,100487.56
2023-07-18T23:40:24.260Z,100482.66
2023-07-18T23:42:51.371Z,100488.63
2023-07-18T23:45:19.449Z,100484.69
2023-07-18T23:47:46.386Z,100493.25
2023-07-18T23:50:13.652Z,100493.25
2023-07-18T23:52:40.522Z,100488.47
2023-07-18T23:55:08.564Z,100492.38
2023-07-18T23:57:35.121Z,100491.59
